sensor_id;sensor_type;location;lat;lon;timestamp;temperature;humidity
48007;DHT22;33771;48.180;11.400;2023-06-22T00:01:50;19.60;99.90
48007;DHT22;33771;48.180;11.400;2023-06-22T00:04:16;19.60;99.90
48007;DHT22;33771;48.180;11.400;2023-06-22T00:06:42;19.50;99.90
48007;DHT22;33771;48.180;11.400;2023-06-22T00:09:07;19.50;99.90
48007;DHT22;33771;48.180;11.400;2023-06-22T00:11:33;19.50;99.90
48007;DHT22;33771;48.180;11.400;2023-06-22T00:13:59;19.50;99.90
48007;DHT22;33771;48.180;11.400;2023-06-22T00:16:25;19.40;99.90
48007;DHT22;33771;48.180;11.400;2023-06-22T00:18:50;19.40;99.90
48007;DHT22;33771;48.180;11.400;2023-06-22T00:21:16;19.40;99.90
48007;DHT22;33771;48.180;11.400;2023-06-22T00:23:42;19.40;99.90
48007;DHT22;33771;48.180;11.400;2023-06-22T00:26:08;19.40;99.90
48007;DHT22;33771;48.180;11.400;2023-06-22T00:28:34;19.40;99.90
48007;DHT22;33771;48.180;11.400;2023-06-22T00:30:59;19.40;99.90
48007;DHT22;33771;48.180;11.400;2023-06-22T00:33:26;19.30;99.90
48007;DHT22;33771;48.180;11.400;2023-06-22T00:35:52;19.30;99.90
48007;DHT22;33771;48.180;11.400;2023-06-22T00:38:19;19.30;99.90
48007;DHT22;33771;48.180;11.400;2023-06-22T00:40:45;19.30;99.90
48007;DHT22;33771;48.180;11.400;2023-06-22T00:43:11;19.30;99.90
48007;DHT22;33771;48.180;11.400;2023-06-22T00:45:36;19.30;99.90
48007;DHT22;33771;48.180;11.400;2023-06-22T00:48:03;19.30;99.90
48007;DHT22;33771;48.180;11.400;2023-06-22T00:50:31;19.30;99.90
48007;DHT22;33771;48.180;11.400;2023-06-22T00:53:05;19.30;99.90
48007;DHT22;33771;48.180;11.400;2023-06-22T00:55:37;19.30;99.90
48007;DHT22;33771;48.180;11.400;2023-06-22T00:58:04;19.30;99.90
48007;DHT22;33771;48.180;11.400;2023-06-22T01:00:33;19.20;99.90
48007;DHT22;33771;48.180;11.400;2023-06-22T01:02:58;19.20;99.90
48007;DHT22;33771;48.180;11.400;2023-06-22T01:05:24;19.30;99.90
48007;DHT22;33771;48.180;11.400;2023-06-22T01:13:25;19.40;99.90
48007;DHT22;33771;48.180;11.400;2023-06-22T01:15:57;19.40;99.90
48007;DHT22;33771;48.180;11.400;2023-06-22T01:18:26;19.40;99.90
48007;DHT22;33771;48.180;11.400;2023-06-22T01:20:54;19.40;99.90
48007;DHT22;33771;48.180;11.400;2023-06-22T01:26:16;19.50;99.90
48007;DHT22;33771;48.180;11.400;2023-06-22T01:28:49;19.40;99.90
48007;DHT22;33771;48.180;11.400;2023-06-22T01:31:23;19.50;99.90
48007;DHT22;33771;48.180;11.400;2023-06-22T01:33:59;19.50;99.90
48007;DHT22;33771;48.180;11.400;2023-06-22T01:36:25;19.50;99.90
48007;DHT22;33771;48.180;11.400;2023-06-22T01:38:52;19.50;99.90
48007;DHT22;33771;48.180;11.400;2023-06-22T01:41:19;19.40;99.90
48007;DHT22;33771;48.180;11.400;2023-06-22T01:43:46;19.40;99.90
48007;DHT22;33771;48.180;11.400;2023-06-22T01:46:12;19.40;99.90
48007;DHT22;33771;48.180;11.400;2023-06-22T01:48:39;19.40;99.90
48007;DHT22;33771;48.180;11.400;2023-06-22T01:51:05;19.30;99.90
48007;DHT22;33771;48.180;11.400;2023-06-22T01:53:30;19.30;99.90
48007;DHT22;33771;48.180;11.400;2023-06-22T01:55:56;19.30;99.90
48007;DHT22;33771;48.180;11.400;2023-06-22T01:58:26;19.20;99.90
48007;DHT22;33771;48.180;11.400;2023-06-22T02:01:00;19.20;99.90
48007;DHT22;33771;48.180;11.400;2023-06-22T02:03:34;19.20;99.90
48007;DHT22;33771;48.180;11.400;2023-06-22T02:06:05;19.10;99.90
48007;DHT22;33771;48.180;11.400;2023-06-22T02:08:40;19.10;99.90
48007;DHT22;33771;48.180;11.400;2023-06-22T02:11:08;19.00;99.90
48007;DHT22;33771;48.180;11.400;2023-06-22T02:13:36;19.00;99.90
48007;DHT22;33771;48.180;11.400;2023-06-22T02:16:02;18.90;99.90
48007;DHT22;33771;48.180;11.400;2023-06-22T02:18:27;18.90;99.90
48007;DHT22;33771;48.180;11.400;2023-06-22T02:20:53;18.80;99.90
48007;DHT22;33771;48.180;11.400;2023-06-22T02:23:19;18.80;99.90
48007;DHT22;33771;48.180;11.400;2023-06-22T02:25:45;18.80;99.90
48007;DHT22;33771;48.180;11.400;2023-06-22T02:28:11;18.70;99.90
48007;DHT22;33771;48.180;11.400;2023-06-22T02:30:36;18.70;99.90
48007;DHT22;33771;48.180;11.400;2023-06-22T02:33:02;18.60;99.90
48007;DHT22;33771;48.180;11.400;2023-06-22T02:35:29;18.50;99.90
48007;DHT22;33771;48.180;11.400;2023-06-22T02:37:58;18.50;99.90
48007;DHT22;33771;48.180;11.400;2023-06-22T02:40:24;18.50;99.90
48007;DHT22;33771;48.180;11.400;2023-06-22T02:42:50;18.50;99.90
48007;DHT22;33771;48.180;11.400;2023-06-22T02:45:16;18.40;99.90
48007;DHT22;33771;48.180;11.400;2023-06-22T02:47:41;18.40;99.90
48007;DHT22;33771;48.180;11.400;2023-06-22T02:50:07;18.30;99.90
48007;DHT22;33771;48.180;11.400;2023-06-22T02:52:33;18.30;99.90
48007;DHT22;33771;48.180;11.400;2023-06-22T02:54:59;18.30;99.90
48007;DHT22;33771;48.180;11.400;2023-06-22T02:57:24;18.30;99.90
48007;DHT22;33771;48.180;11.400;2023-06-22T02:59:50;18.30;99.90
48007;DHT22;33771;48.180;11.400;2023-06-22T03:02:15;18.20;99.90
48007;DHT22;33771;48.180;11.400;2023-06-22T03:04:41;18.20;99.90
48007;DHT22;33771;48.180;11.400;2023-06-22T03:07:08;18.20;99.90
48007;DHT22;33771;48.180;11.400;2023-06-22T03:09:33;18.10;99.90
48007;DHT22;33771;48.180;11.400;2023-06-22T03:11:59;18.10;99.90
48007;DHT22;33771;48.180;11.400;2023-06-22T03:14:24;18.10;99.90
48007;DHT22;33771;48.180;11.400;2023-06-22T03:16:50;18.00;99.90
48007;DHT22;33771;48.180;11.400;2023-06-22T03:19:15;18.00;99.90
48007;DHT22;33771;48.180;11.400;2023-06-22T03:21:42;18.00;99.90
48007;DHT22;33771;48.180;11.400;2023-06-22T03:24:07;18.00;99.90
48007;DHT22;33771;48.180;11.400;2023-06-22T03:26:34;17.90;99.90
48007;DHT22;33771;48.180;11.400;2023-06-22T03:28:59;17.90;99.90
48007;DHT22;33771;48.180;11.400;2023-06-22T03:31:25;17.90;99.90
48007;DHT22;33771;48.180;11.400;2023-06-22T03:33:51;17.90;99.90
48007;DHT22;33771;48.180;11.400;2023-06-22T03:36:17;17.90;99.90
48007;DHT22;33771;48.180;11.400;2023-06-22T03:38:49;17.90;99.90
48007;DHT22;33771;48.180;11.400;2023-06-22T03:41:15;17.90;99.90
48007;DHT22;33771;48.180;11.400;2023-06-22T03:43:41;17.90;99.90
48007;DHT22;33771;48.180;11.400;2023-06-22T03:46:07;17.90;99.90
48007;DHT22;33771;48.180;11.400;2023-06-22T03:48:32;17.90;99.90
48007;DHT22;33771;48.180;11.400;2023-06-22T03:50:59;17.90;99.90
48007;DHT22;33771;48.180;11.400;2023-06-22T03:53:25;17.90;99.90
48007;DHT22;33771;48.180;11.400;2023-06-22T03:55:51;17.80;99.90
48007;DHT22;33771;48.180;11.400;2023-06-22T03:58:18;17.80;99.90
48007;DHT22;33771;48.180;11.400;2023-06-22T04:00:48;17.90;99.90
48007;DHT22;33771;48.180;11.400;2023-06-22T04:03:14;17.90;99.90
48007;DHT22;33771;48.180;11.400;2023-06-22T04:05:40;17.80;99.90
48007;DHT22;33771;48.180;11.400;2023-06-22T04:08:06;17.80;99.90
48007;DHT22;33771;48.180;11.400;2023-06-22T04:10:32;17.80;99.90
48007;DHT22;33771;48.180;11.400;2023-06-22T04:12:58;17.90;99.90
48007;DHT22;33771;48.180;11.400;2023-06-22T04:15:23;17.90;99.90
48007;DHT22;33771;48.180;11.400;2023-06-22T04:17:49;17.90;99.90
48007;DHT22;33771;48.180;11.400;2023-06-22T04:20:14;18.00;99.90
48007;DHT22;33771;48.180;11.400;2023-06-22T04:22:40;18.00;99.90
48007;DHT22;33771;48.180;11.400;2023-06-22T04:25:06;18.10;99.90
48007;DHT22;33771;48.180;11.400;2023-06-22T04:27:35;18.10;99.90
48007;DHT22;33771;48.180;11.400;2023-06-22T04:30:07;18.10;99.90
48007;DHT22;33771;48.180;11.400;2023-06-22T04:32:34;18.20;99.90
48007;DHT22;33771;48.180;11.400;2023-06-22T04:35:02;18.20;99.90
48007;DHT22;33771;48.180;11.400;2023-06-22T04:37:30;18.30;99.90
48007;DHT22;33771;48.180;11.400;2023-06-22T04:39:55;18.30;99.90
48007;DHT22;33771;48.180;11.400;2023-06-22T04:42:21;18.40;99.90
48007;DHT22;33771;48.180;11.400;2023-06-22T04:44:46;18.40;99.90
48007;DHT22;33771;48.180;11.400;2023-06-22T04:47:12;18.50;99.90
48007;DHT22;33771;48.180;11.400;2023-06-22T04:49:37;18.50;99.90
48007;DHT22;33771;48.180;11.400;2023-06-22T04:52:05;18.60;99.90
48007;DHT22;33771;48.180;11.400;2023-06-22T04:54:31;18.70;99.90
48007;DHT22;33771;48.180;11.400;2023-06-22T04:57:00;18.80;99.90
48007;DHT22;33771;48.180;11.400;2023-06-22T04:59:27;18.80;99.90
48007;DHT22;33771;48.180;11.400;2023-06-22T05:02:00;18.90;99.90
48007;DHT22;33771;48.180;11.400;2023-06-22T05:04:26;19.00;99.90
48007;DHT22;33771;48.180;11.400;2023-06-22T05:06:53;19.10;99.90
48007;DHT22;33771;48.180;11.400;2023-06-22T05:09:20;19.20;99.90
48007;DHT22;33771;48.180;11.400;2023-06-22T05:11:46;19.30;99.90
48007;DHT22;33771;48.180;11.400;2023-06-22T05:14:12;19.40;99.90
48007;DHT22;33771;48.180;11.400;2023-06-22T05:16:38;19.50;99.90
48007;DHT22;33771;48.180;11.400;2023-06-22T05:19:04;19.50;99.90
48007;DHT22;33771;48.180;11.400;2023-06-22T05:21:31;19.60;99.90
48007;DHT22;33771;48.180;11.400;2023-06-22T05:23:57;19.70;99.90
48007;DHT22;33771;48.180;11.400;2023-06-22T05:26:26;19.80;99.90
48007;DHT22;33771;48.180;11.400;2023-06-22T05:28:52;19.90;99.90
48007;DHT22;33771;48.180;11.400;2023-06-22T05:31:17;20.00;99.90
48007;DHT22;33771;48.180;11.400;2023-06-22T05:33:45;20.10;99.90
48007;DHT22;33771;48.180;11.400;2023-06-22T05:36:11;20.20;99.90
48007;DHT22;33771;48.180;11.400;2023-06-22T05:38:36;20.30;99.90
48007;DHT22;33771;48.180;11.400;2023-06-22T05:41:02;20.40;99.90
48007;DHT22;33771;48.180;11.400;2023-06-22T05:43:28;20.60;99.90
48007;DHT22;33771;48.180;11.400;2023-06-22T05:45:53;20.70;99.90
48007;DHT22;33771;48.180;11.400;2023-06-22T05:48:19;20.80;99.90
48007;DHT22;33771;48.180;11.400;2023-06-22T05:50:44;20.90;99.90
48007;DHT22;33771;48.180;11.400;2023-06-22T05:53:10;21.00;99.90
48007;DHT22;33771;48.180;11.400;2023-06-22T05:55:36;21.10;99.90
48007;DHT22;33771;48.180;11.400;2023-06-22T05:58:01;21.20;99.90
48007;DHT22;33771;48.180;11.400;2023-06-22T06:00:29;21.30;99.90
48007;DHT22;33771;48.180;11.400;2023-06-22T06:02:54;21.50;99.90
48007;DHT22;33771;48.180;11.400;2023-06-22T06:05:20;21.60;99.90
48007;DHT22;33771;48.180;11.400;2023-06-22T06:07:46;21.70;99.90
48007;DHT22;33771;48.180;11.400;2023-06-22T06:10:12;21.90;99.90
48007;DHT22;33771;48.180;11.400;2023-06-22T06:12:38;22.00;99.90
48007;DHT22;33771;48.180;11.400;2023-06-22T06:15:04;22.10;99.90
48007;DHT22;33771;48.180;11.400;2023-06-22T06:17:30;22.30;99.90
48007;DHT22;33771;48.180;11.400;2023-06-22T06:19:56;22.40;99.90
48007;DHT22;33771;48.180;11.400;2023-06-22T06:22:21;22.50;99.90
48007;DHT22;33771;48.180;11.400;2023-06-22T06:24:49;22.60;99.90
48007;DHT22;33771;48.180;11.400;2023-06-22T06:27:15;22.60;99.90
48007;DHT22;33771;48.180;11.400;2023-06-22T06:29:40;22.70;99.90
48007;DHT22;33771;48.180;11.400;2023-06-22T06:32:06;22.70;99.90
48007;DHT22;33771;48.180;11.400;2023-06-22T06:34:32;22.80;99.90
48007;DHT22;33771;48.180;11.400;2023-06-22T06:36:57;22.90;99.90
48007;DHT22;33771;48.180;11.400;2023-06-22T06:39:23;22.90;99.90
48007;DHT22;33771;48.180;11.400;2023-06-22T06:41:49;23.00;99.90
48007;DHT22;33771;48.180;11.400;2023-06-22T06:44:15;23.10;99.90
48007;DHT22;33771;48.180;11.400;2023-06-22T06:46:40;23.20;99.90
48007;DHT22;33771;48.180;11.400;2023-06-22T06:49:07;23.20;99.90
48007;DHT22;33771;48.180;11.400;2023-06-22T06:51:32;23.30;99.90
48007;DHT22;33771;48.180;11.400;2023-06-22T06:53:58;23.30;99.90
48007;DHT22;33771;48.180;11.400;2023-06-22T06:56:23;23.40;99.90
48007;DHT22;33771;48.180;11.400;2023-06-22T06:58:50;23.60;99.90
48007;DHT22;33771;48.180;11.400;2023-06-22T07:01:16;23.60;99.90
48007;DHT22;33771;48.180;11.400;2023-06-22T07:03:42;23.60;99.90
48007;DHT22;33771;48.180;11.400;2023-06-22T07:06:08;23.70;99.90
48007;DHT22;33771;48.180;11.400;2023-06-22T07:08:34;23.90;99.90
48007;DHT22;33771;48.180;11.400;2023-06-22T07:11:01;23.90;99.90
48007;DHT22;33771;48.180;11.400;2023-06-22T07:13:27;24.00;99.90
48007;DHT22;33771;48.180;11.400;2023-06-22T07:15:52;24.20;99.90
48007;DHT22;33771;48.180;11.400;2023-06-22T07:18:18;24.30;99.90
48007;DHT22;33771;48.180;11.400;2023-06-22T07:20:44;24.40;99.90
48007;DHT22;33771;48.180;11.400;2023-06-22T07:23:09;24.60;99.90
48007;DHT22;33771;48.180;11.400;2023-06-22T07:25:35;24.60;99.90
48007;DHT22;33771;48.180;11.400;2023-06-22T07:28:05;24.70;99.90
48007;DHT22;33771;48.180;11.400;2023-06-22T07:30:31;24.70;99.90
48007;DHT22;33771;48.180;11.400;2023-06-22T07:32:58;24.70;99.90
48007;DHT22;33771;48.180;11.400;2023-06-22T07:35:24;24.70;99.90
48007;DHT22;33771;48.180;11.400;2023-06-22T07:37:49;24.80;99.90
48007;DHT22;33771;48.180;11.400;2023-06-22T07:40:15;24.90;99.90
48007;DHT22;33771;48.180;11.400;2023-06-22T07:42:41;24.90;99.90
48007;DHT22;33771;48.180;11.400;2023-06-22T07:45:07;25.00;99.90
48007;DHT22;33771;48.180;11.400;2023-06-22T07:47:34;25.10;99.90
48007;DHT22;33771;48.180;11.400;2023-06-22T07:50:01;25.10;99.90
48007;DHT22;33771;48.180;11.400;2023-06-22T07:52:30;25.20;99.90
48007;DHT22;33771;48.180;11.400;2023-06-22T07:54:56;25.20;99.90
48007;DHT22;33771;48.180;11.400;2023-06-22T07:57:21;25.30;99.90
48007;DHT22;33771;48.180;11.400;2023-06-22T07:59:47;25.40;99.90
48007;DHT22;33771;48.180;11.400;2023-06-22T08:02:13;25.40;99.90
48007;DHT22;33771;48.180;11.400;2023-06-22T08:04:39;25.60;99.90
48007;DHT22;33771;48.180;11.400;2023-06-22T08:07:05;25.60;99.90
48007;DHT22;33771;48.180;11.400;2023-06-22T08:09:32;25.60;99.90
48007;DHT22;33771;48.180;11.400;2023-06-22T08:11:58;25.80;99.90
48007;DHT22;33771;48.180;11.400;2023-06-22T08:14:27;25.90;99.90
48007;DHT22;33771;48.180;11.400;2023-06-22T08:16:53;26.00;99.90
48007;DHT22;33771;48.180;11.400;2023-06-22T08:19:18;26.10;99.90
48007;DHT22;33771;48.180;11.400;2023-06-22T08:21:44;26.10;99.90
48007;DHT22;33771;48.180;11.400;2023-06-22T08:24:09;26.20;99.90
48007;DHT22;33771;48.180;11.400;2023-06-22T08:26:35;26.40;99.90
48007;DHT22;33771;48.180;11.400;2023-06-22T08:29:03;26.50;99.90
48007;DHT22;33771;48.180;11.400;2023-06-22T08:31:30;26.60;99.90
48007;DHT22;33771;48.180;11.400;2023-06-22T08:33:56;26.60;99.90
48007;DHT22;33771;48.180;11.400;2023-06-22T08:36:21;26.70;99.90
48007;DHT22;33771;48.180;11.400;2023-06-22T08:38:47;26.70;99.90
48007;DHT22;33771;48.180;11.400;2023-06-22T08:41:16;26.60;99.90
48007;DHT22;33771;48.180;11.400;2023-06-22T08:43:43;26.50;99.90
48007;DHT22;33771;48.180;11.400;2023-06-22T08:46:09;26.60;99.90
48007;DHT22;33771;48.180;11.400;2023-06-22T08:48:35;26.70;99.90
48007;DHT22;33771;48.180;11.400;2023-06-22T08:51:01;26.70;99.90
48007;DHT22;33771;48.180;11.400;2023-06-22T08:53:27;26.80;99.90
48007;DHT22;33771;48.180;11.400;2023-06-22T08:55:53;27.00;99.90
48007;DHT22;33771;48.180;11.400;2023-06-22T08:58:18;27.10;99.90
48007;DHT22;33771;48.180;11.400;2023-06-22T09:00:45;27.20;99.90
48007;DHT22;33771;48.180;11.400;2023-06-22T09:03:11;27.30;99.90
48007;DHT22;33771;48.180;11.400;2023-06-22T09:05:37;27.40;99.90
48007;DHT22;33771;48.180;11.400;2023-06-22T09:08:03;27.50;99.90
48007;DHT22;33771;48.180;11.400;2023-06-22T09:10:28;27.70;99.90
48007;DHT22;33771;48.180;11.400;2023-06-22T09:12:54;27.80;99.90
48007;DHT22;33771;48.180;11.400;2023-06-22T09:15:19;27.90;99.90
48007;DHT22;33771;48.180;11.400;2023-06-22T09:17:45;28.00;99.90
48007;DHT22;33771;48.180;11.400;2023-06-22T09:20:11;28.10;99.90
48007;DHT22;33771;48.180;11.400;2023-06-22T09:22:37;28.10;99.90
48007;DHT22;33771;48.180;11.400;2023-06-22T09:25:03;28.20;99.90
48007;DHT22;33771;48.180;11.400;2023-06-22T09:27:28;28.40;99.90
48007;DHT22;33771;48.180;11.400;2023-06-22T09:29:54;28.50;99.90
48007;DHT22;33771;48.180;11.400;2023-06-22T09:32:20;28.60;99.90
48007;DHT22;33771;48.180;11.400;2023-06-22T09:34:45;28.80;99.90
48007;DHT22;33771;48.180;11.400;2023-06-22T09:37:12;29.00;99.90
48007;DHT22;33771;48.180;11.400;2023-06-22T09:39:37;29.10;99.90
48007;DHT22;33771;48.180;11.400;2023-06-22T09:42:03;29.30;99.90
48007;DHT22;33771;48.180;11.400;2023-06-22T09:44:30;29.40;99.90
48007;DHT22;33771;48.180;11.400;2023-06-22T09:46:57;29.60;99.90
48007;DHT22;33771;48.180;11.400;2023-06-22T09:49:23;29.90;99.90
48007;DHT22;33771;48.180;11.400;2023-06-22T09:51:48;30.20;99.90
48007;DHT22;33771;48.180;11.400;2023-06-22T09:54:15;30.40;99.90
48007;DHT22;33771;48.180;11.400;2023-06-22T09:56:40;30.70;99.90
48007;DHT22;33771;48.180;11.400;2023-06-22T09:59:06;30.90;99.90
48007;DHT22;33771;48.180;11.400;2023-06-22T10:01:31;31.00;99.90
48007;DHT22;33771;48.180;11.400;2023-06-22T10:03:57;31.10;99.90
48007;DHT22;33771;48.180;11.400;2023-06-22T10:06:23;31.20;99.90
48007;DHT22;33771;48.180;11.400;2023-06-22T10:08:51;31.50;99.90
48007;DHT22;33771;48.180;11.400;2023-06-22T10:11:16;31.70;99.90
48007;DHT22;33771;48.180;11.400;2023-06-22T10:13:42;31.90;99.90
48007;DHT22;33771;48.180;11.400;2023-06-22T10:16:08;32.10;99.90
48007;DHT22;33771;48.180;11.400;2023-06-22T10:18:33;32.40;99.90
48007;DHT22;33771;48.180;11.400;2023-06-22T10:20:59;32.40;99.90
48007;DHT22;33771;48.180;11.400;2023-06-22T10:23:25;32.60;99.90
48007;DHT22;33771;48.180;11.400;2023-06-22T10:25:50;32.70;99.90
48007;DHT22;33771;48.180;11.400;2023-06-22T10:28:16;32.70;99.90
48007;DHT22;33771;48.180;11.400;2023-06-22T10:30:42;32.80;99.90
48007;DHT22;33771;48.180;11.400;2023-06-22T10:33:08;32.90;99.90
48007;DHT22;33771;48.180;11.400;2023-06-22T10:35:34;33.00;99.90
48007;DHT22;33771;48.180;11.400;2023-06-22T10:38:00;33.20;99.90
48007;DHT22;33771;48.180;11.400;2023-06-22T10:40:26;33.30;99.90
48007;DHT22;33771;48.180;11.400;2023-06-22T10:42:51;33.40;99.90
48007;DHT22;33771;48.180;11.400;2023-06-22T10:45:17;33.40;99.90
48007;DHT22;33771;48.180;11.400;2023-06-22T10:47:42;33.70;99.90
48007;DHT22;33771;48.180;11.400;2023-06-22T10:50:08;33.70;99.90
48007;DHT22;33771;48.180;11.400;2023-06-22T10:52:34;33.90;99.90
48007;DHT22;33771;48.180;11.400;2023-06-22T10:54:59;33.90;99.90
48007;DHT22;33771;48.180;11.400;2023-06-22T10:57:25;33.70;99.90
48007;DHT22;33771;48.180;11.400;2023-06-22T10:59:51;33.50;99.90
48007;DHT22;33771;48.180;11.400;2023-06-22T11:02:16;33.30;99.90
48007;DHT22;33771;48.180;11.400;2023-06-22T11:04:42;33.20;99.90
48007;DHT22;33771;48.180;11.400;2023-06-22T11:07:08;33.00;99.90
48007;DHT22;33771;48.180;11.400;2023-06-22T11:09:34;33.00;99.90
48007;DHT22;33771;48.180;11.400;2023-06-22T11:12:00;33.00;99.90
48007;DHT22;33771;48.180;11.400;2023-06-22T11:14:25;33.20;99.90
48007;DHT22;33771;48.180;11.400;2023-06-22T11:16:51;33.30;99.90
48007;DHT22;33771;48.180;11.400;2023-06-22T11:19:17;33.50;99.90
48007;DHT22;33771;48.180;11.400;2023-06-22T11:21:43;33.60;99.90
48007;DHT22;33771;48.180;11.400;2023-06-22T11:24:08;33.70;99.90
48007;DHT22;33771;48.180;11.400;2023-06-22T11:26:34;33.90;99.90
48007;DHT22;33771;48.180;11.400;2023-06-22T11:29:00;34.20;99.90
48007;DHT22;33771;48.180;11.400;2023-06-22T11:31:26;34.60;99.90
48007;DHT22;33771;48.180;11.400;2023-06-22T11:33:51;34.80;99.90
48007;DHT22;33771;48.180;11.400;2023-06-22T11:36:17;34.90;99.30
48007;DHT22;33771;48.180;11.400;2023-06-22T11:38:43;35.00;99.70
48007;DHT22;33771;48.180;11.400;2023-06-22T11:41:09;35.20;98.90
48007;DHT22;33771;48.180;11.400;2023-06-22T11:43:35;35.30;98.80
48007;DHT22;33771;48.180;11.400;2023-06-22T11:46:03;35.40;98.50
48007;DHT22;33771;48.180;11.400;2023-06-22T11:48:29;35.60;97.50
48007;DHT22;33771;48.180;11.400;2023-06-22T11:50:55;35.80;97.90
48007;DHT22;33771;48.180;11.400;2023-06-22T11:53:21;36.10;97.70
48007;DHT22;33771;48.180;11.400;2023-06-22T11:55:47;36.50;96.90
48007;DHT22;33771;48.180;11.400;2023-06-22T11:58:12;36.70;96.20
48007;DHT22;33771;48.180;11.400;2023-06-22T12:00:38;37.00;94.60
48007;DHT22;33771;48.180;11.400;2023-06-22T12:03:04;37.10;93.90
48007;DHT22;33771;48.180;11.400;2023-06-22T12:05:29;36.80;94.50
48007;DHT22;33771;48.180;11.400;2023-06-22T12:07:55;36.80;94.60
48007;DHT22;33771;48.180;11.400;2023-06-22T12:10:22;36.80;93.20
48007;DHT22;33771;48.180;11.400;2023-06-22T12:12:47;36.80;92.80
48007;DHT22;33771;48.180;11.400;2023-06-22T12:15:13;36.50;93.30
48007;DHT22;33771;48.180;11.400;2023-06-22T12:17:38;36.30;93.40
48007;DHT22;33771;48.180;11.400;2023-06-22T12:20:05;36.10;93.20
48007;DHT22;33771;48.180;11.400;2023-06-22T12:22:32;35.90;93.50
48007;DHT22;33771;48.180;11.400;2023-06-22T12:24:57;35.90;93.50
48007;DHT22;33771;48.180;11.400;2023-06-22T12:27:23;35.80;94.60
48007;DHT22;33771;48.180;11.400;2023-06-22T12:29:48;36.00;94.10
48007;DHT22;33771;48.180;11.400;2023-06-22T12:32:14;36.40;94.00
48007;DHT22;33771;48.180;11.400;2023-06-22T12:34:42;36.70;93.20
48007;DHT22;33771;48.180;11.400;2023-06-22T12:37:08;36.50;93.10
48007;DHT22;33771;48.180;11.400;2023-06-22T12:39:34;36.40;92.90
48007;DHT22;33771;48.180;11.400;2023-06-22T12:42:00;36.20;92.40
48007;DHT22;33771;48.180;11.400;2023-06-22T12:44:25;36.00;92.80
48007;DHT22;33771;48.180;11.400;2023-06-22T12:46:51;35.80;92.90
48007;DHT22;33771;48.180;11.400;2023-06-22T12:49:17;35.50;92.40
48007;DHT22;33771;48.180;11.400;2023-06-22T12:51:43;35.10;93.60
48007;DHT22;33771;48.180;11.400;2023-06-22T12:54:10;34.90;93.30
48007;DHT22;33771;48.180;11.400;2023-06-22T12:56:36;34.70;93.70
48007;DHT22;33771;48.180;11.400;2023-06-22T12:59:01;34.70;95.30
48007;DHT22;33771;48.180;11.400;2023-06-22T13:01:27;34.80;95.50
48007;DHT22;33771;48.180;11.400;2023-06-22T13:03:53;35.00;95.50
48007;DHT22;33771;48.180;11.400;2023-06-22T13:06:19;35.10;95.80
48007;DHT22;33771;48.180;11.400;2023-06-22T13:08:45;35.30;95.60
48007;DHT22;33771;48.180;11.400;2023-06-22T13:11:11;35.30;95.60
48007;DHT22;33771;48.180;11.400;2023-06-22T13:13:36;35.40;96.00
48007;DHT22;33771;48.180;11.400;2023-06-22T13:16:02;35.60;95.60
48007;DHT22;33771;48.180;11.400;2023-06-22T13:18:27;35.80;95.20
48007;DHT22;33771;48.180;11.400;2023-06-22T13:20:53;35.90;95.20
48007;DHT22;33771;48.180;11.400;2023-06-22T13:23:20;35.90;94.50
48007;DHT22;33771;48.180;11.400;2023-06-22T13:25:46;35.80;94.60
48007;DHT22;33771;48.180;11.400;2023-06-22T13:28:12;35.80;94.80
48007;DHT22;33771;48.180;11.400;2023-06-22T13:30:39;35.80;94.20
48007;DHT22;33771;48.180;11.400;2023-06-22T13:33:05;35.70;94.20
48007;DHT22;33771;48.180;11.400;2023-06-22T13:35:31;35.70;94.00
48007;DHT22;33771;48.180;11.400;2023-06-22T13:37:56;35.70;94.40
48007;DHT22;33771;48.180;11.400;2023-06-22T13:40:22;35.90;93.40
48007;DHT22;33771;48.180;11.400;2023-06-22T13:42:47;35.80;93.60
48007;DHT22;33771;48.180;11.400;2023-06-22T13:45:13;35.50;93.70
48007;DHT22;33771;48.180;11.400;2023-06-22T13:47:39;35.30;94.00
48007;DHT22;33771;48.180;11.400;2023-06-22T13:50:05;35.10;93.90
48007;DHT22;33771;48.180;11.400;2023-06-22T13:52:31;34.90;93.90
48007;DHT22;33771;48.180;11.400;2023-06-22T13:54:56;34.60;94.70
48007;DHT22;33771;48.180;11.400;2023-06-22T13:57:22;34.40;94.70
48007;DHT22;33771;48.180;11.400;2023-06-22T13:59:47;34.30;95.20
48007;DHT22;33771;48.180;11.400;2023-06-22T14:02:13;34.20;94.90
48007;DHT22;33771;48.180;11.400;2023-06-22T14:04:39;34.10;95.00
48007;DHT22;33771;48.180;11.400;2023-06-22T14:07:04;33.90;94.90
48007;DHT22;33771;48.180;11.400;2023-06-22T14:09:30;33.80;94.90
48007;DHT22;33771;48.180;11.400;2023-06-22T14:11:55;33.70;95.40
48007;DHT22;33771;48.180;11.400;2023-06-22T14:14:21;33.60;95.80
48007;DHT22;33771;48.180;11.400;2023-06-22T14:16:47;33.60;94.90
48007;DHT22;33771;48.180;11.400;2023-06-22T14:19:16;33.60;94.90
48007;DHT22;33771;48.180;11.400;2023-06-22T14:21:42;33.40;95.30
48007;DHT22;33771;48.180;11.400;2023-06-22T14:24:07;33.30;95.50
48007;DHT22;33771;48.180;11.400;2023-06-22T14:26:33;33.30;94.90
48007;DHT22;33771;48.180;11.400;2023-06-22T14:28:58;33.30;95.30
48007;DHT22;33771;48.180;11.400;2023-06-22T14:31:24;33.30;95.70
48007;DHT22;33771;48.180;11.400;2023-06-22T14:33:50;33.30;95.00
48007;DHT22;33771;48.180;11.400;2023-06-22T14:36:16;33.30;94.60
48007;DHT22;33771;48.180;11.400;2023-06-22T14:38:43;33.20;94.40
48007;DHT22;33771;48.180;11.400;2023-06-22T14:41:08;33.20;94.80
48007;DHT22;33771;48.180;11.400;2023-06-22T14:43:34;33.10;94.60
48007;DHT22;33771;48.180;11.400;2023-06-22T14:46:00;33.10;93.80
48007;DHT22;33771;48.180;11.400;2023-06-22T14:48:25;33.10;94.50
48007;DHT22;33771;48.180;11.400;2023-06-22T14:50:51;33.00;94.90
48007;DHT22;33771;48.180;11.400;2023-06-22T14:53:17;33.00;94.20
48007;DHT22;33771;48.180;11.400;2023-06-22T14:55:42;33.00;95.00
48007;DHT22;33771;48.180;11.400;2023-06-22T14:58:09;32.80;94.90
48007;DHT22;33771;48.180;11.400;2023-06-22T15:00:34;32.90;93.90
48007;DHT22;33771;48.180;11.400;2023-06-22T15:03:00;32.90;93.50
48007;DHT22;33771;48.180;11.400;2023-06-22T15:05:26;32.90;93.60
48007;DHT22;33771;48.180;11.400;2023-06-22T15:07:51;32.80;93.60
48007;DHT22;33771;48.180;11.400;2023-06-22T15:10:17;32.90;93.00
48007;DHT22;33771;48.180;11.400;2023-06-22T15:12:42;32.80;93.40
48007;DHT22;33771;48.180;11.400;2023-06-22T15:15:08;32.70;93.70
48007;DHT22;33771;48.180;11.400;2023-06-22T15:17:34;32.70;93.90